Time;durP1;ratioP1;P1;durP2;ratioP2;P2;SDS_P1;SDS_P2;PMS_P1;PMS_P2;Temp;Humidity;BMP_temperature;BMP_pressure;BME280_temperature;BME280_humidity;BME280_pressure;Samples;Min_cycle;Max_cycle;Signal;HPM_P1;HPM_P2
2022/03/01 00:00:09;;;;;;;15.33;9.60;;;;;;;1.05;53.52;102313.00;690863;28;1309;-94
2022/03/01 00:00:33;;;;;;;18.60;10.48;;;;;;;1.07;53.59;102320.09;693759;28;981;-94
2022/03/01 00:00:53;;;;;;;18.30;10.63;;;;;;;1.05;53.92;102319.03;693629;28;1252;-94
2022/03/01 00:01:14;;;;;;;17.55;10.57;;;;;;;1.00;53.98;102312.59;690303;28;1216;-92
2022/03/01 00:01:34;;;;;;;14.40;9.90;;;;;;;0.92;53.80;102300.69;693495;28;2023;-93
2022/03/01 00:01:55;;;;;;;13.97;9.70;;;;;;;1.06;53.86;102323.44;693105;28;1201;-94
2022/03/01 00:02:16;;;;;;;14.25;9.50;;;;;;;0.92;54.00;102303.25;688115;28;1215;-94
2022/03/01 00:02:36;;;;;;;14.10;9.95;;;;;;;1.01;53.92;102321.19;688352;28;1270;-94
2022/03/01 00:02:57;;;;;;;14.20;9.97;;;;;;;0.91;53.94;102307.50;688254;28;1169;-94
2022/03/01 00:03:18;;;;;;;15.27;9.80;;;;;;;0.92;54.36;102303.25;688279;28;1201;-94
2022/03/01 00:03:39;;;;;;;15.50;9.45;;;;;;;0.90;54.32;102307.38;693759;28;1353;-94
2022/03/01 00:03:59;;;;;;;15.40;9.57;;;;;;;0.91;54.15;102311.75;688304;28;1148;-94
2022/03/01 00:04:21;;;;;;;15.75;10.15;;;;;;;0.98;54.39;102331.19;690772;28;1246;-94
2022/03/01 00:04:41;;;;;;;15.93;10.27;;;;;;;0.86;54.13;102312.97;693544;28;1213;-94
2022/03/01 00:05:02;;;;;;;16.77;10.50;;;;;;;0.85;54.52;102311.16;696325;28;1271;-94
2022/03/01 00:05:22;;;;;;;16.80;10.48;;;;;;;0.85;54.47;102312.06;691085;28;1181;-94
2022/03/01 00:05:43;;;;;;;17.87;10.80;;;;;;;0.88;54.42;102314.00;687972;28;1232;-94
2022/03/01 00:06:04;;;;;;;17.23;10.95;;;;;;;0.89;54.42;102313.25;693498;28;1201;-94
2022/03/01 00:06:24;;;;;;;17.50;11.13;;;;;;;0.88;54.59;102308.88;693544;28;1276;-93
2022/03/01 00:06:45;;;;;;;15.60;10.67;;;;;;;0.88;54.45;102316.59;696327;28;1174;-94
2022/03/01 00:07:07;;;;;;;15.30;10.40;;;;;;;0.89;54.69;102315.81;692883;28;1192;-94
2022/03/01 00:07:28;;;;;;;14.75;10.00;;;;;;;0.86;54.79;102308.75;691022;28;1380;-94
2022/03/01 00:07:48;;;;;;;16.17;10.00;;;;;;;0.81;54.54;102305.72;693454;28;1318;-94
2022/03/01 00:08:09;;;;;;;16.67;9.95;;;;;;;0.91;54.60;102320.34;693460;28;1291;-94
2022/03/01 00:08:29;;;;;;;15.43;9.87;;;;;;;0.94;54.87;102327.44;695936;28;1409;-94
2022/03/01 00:08:52;;;;;;;15.35;9.80;;;;;;;0.78;54.67;102295.19;690722;28;1299;-94
2022/03/01 00:09:13;;;;;;;15.10;9.93;;;;;;;0.79;54.83;102302.13;691011;28;1260;-94
2022/03/01 00:09:35;;;;;;;15.93;10.05;;;;;;;0.89;54.65;102313.25;687725;28;1215;-93
2022/03/01 00:09:55;;;;;;;14.48;9.75;;;;;;;0.76;54.79;102299.28;693451;28;1341;-93
2022/03/01 00:10:16;;;;;;;14.98;9.75;;;;;;;0.79;54.96;102302.13;688243;28;1417;-94
2022/03/01 00:10:36;;;;;;;14.63;10.00;;;;;;;0.79;55.15;102306.38;693619;28;1208;-94
2022/03/01 00:10:57;;;;;;;15.07;10.50;;;;;;;0.81;54.91;102305.72;693107;28;1261;-94
2022/03/01 00:11:17;;;;;;;14.55;10.48;;;;;;;0.82;55.32;102309.22;688313;28;1301;-94
2022/03/01 00:11:58;;;;;;;14.73;10.32;;;;;;;0.87;55.08;102319.94;688040;28;1219;-94
2022/03/01 00:12:19;;;;;;;15.75;10.00;;;;;;;0.80;54.97;102306.50;693510;28;1273;-94
2022/03/01 00:12:39;;;;;;;15.30;9.50;;;;;;;0.77;54.88;102308.78;688256;28;1199;-94
2022/03/01 00:13:00;;;;;;;16.33;9.52;;;;;;;0.79;54.94;102309.84;693567;28;1160;-94
2022/03/01 00:13:20;;;;;;;16.20;10.27;;;;;;;0.81;55.08;102315.13;693638;28;1250;-94
2022/03/01 00:13:41;;;;;;;16.63;10.40;;;;;;;0.83;55.17;102305.00;690921;28;1136;-94
2022/03/01 00:14:02;;;;;;;16.70;10.80;;;;;;;0.81;55.03;102308.28;691534;28;1178;-94
2022/03/01 00:14:23;;;;;;;17.13;10.77;;;;;;;0.83;55.10;102307.56;692612;28;1241;-94
2022/03/01 00:14:43;;;;;;;16.08;10.85;;;;;;;0.78;55.23;102300.31;695927;28;1166;-94
2022/03/01 00:15:05;;;;;;;15.32;10.38;;;;;;;0.86;55.08;102313.91;690729;28;1135;-94
2022/03/01 00:15:25;;;;;;;14.85;10.07;;;;;;;0.81;55.17;102310.88;689479;28;1198;-94
2022/03/01 00:15:46;;;;;;;15.45;9.90;;;;;;;0.78;55.54;102299.44;688228;28;1237;-94
2022/03/01 00:16:06;;;;;;;15.53;10.00;;;;;;;0.85;55.30;102313.75;688470;28;1067;-94
2022/03/01 00:16:27;;;;;;;14.77;9.88;;;;;;;0.84;55.60;102311.94;694076;28;1315;-94
2022/03/01 00:16:48;;;;;;;14.20;10.07;;;;;;;0.72;55.33;102286.00;691137;28;1276;-94
2022/03/01 00:17:08;;;;;;;13.02;9.77;;;;;;;0.79;55.49;102301.22;690906;28;1161;-94
2022/03/01 00:17:29;;;;;;;13.60;9.80;;;;;;;0.83;55.37;102317.84;691112;28;1209;-94
2022/03/01 00:17:50;;;;;;;14.73;9.95;;;;;;;0.77;55.72;102302.72;692978;28;1088;-94
2022/03/01 00:18:10;;;;;;;18.77;10.77;;;;;;;0.80;55.44;102315.91;690969;28;1252;-94
2022/03/01 00:18:31;;;;;;;18.50;10.77;;;;;;;0.81;55.44;102310.88;688380;28;1141;-94
2022/03/01 00:18:52;;;;;;;17.57;10.73;;;;;;;0.73;55.31;102306.69;690903;28;1169;-94
2022/03/01 00:19:12;;;;;;;17.02;10.63;;;;;;;0.76;55.56;102312.13;688432;28;1191;-94
2022/03/01 00:19:33;;;;;;;16.20;10.52;;;;;;;0.69;55.54;102298.56;692479;28;1269;-94
2022/03/01 00:19:53;;;;;;;16.87;10.83;;;;;;;0.73;55.42;102311.81;693544;28;1244;-94
2022/03/01 00:20:14;;;;;;;15.38;10.45;;;;;;;0.72;55.65;102304.88;690834;28;1165;-93
2022/03/01 00:20:37;;;;;;;16.23;10.20;;;;;;;0.74;55.71;102308.53;690982;28;1404;-94
2022/03/01 00:20:58;;;;;;;14.70;9.82;;;;;;;0.68;55.65;102302.81;696431;28;1300;-94
2022/03/01 00:21:19;;;;;;;15.90;10.30;;;;;;;0.81;55.67;102322.84;695582;28;1906;-94
2022/03/01 00:21:39;;;;;;;15.57;10.90;;;;;;;0.76;55.37;102316.34;693901;28;1443;-93
2022/03/01 00:22:00;;;;;;;17.63;11.60;;;;;;;0.73;55.58;102306.69;691050;28;1220;-94
2022/03/01 00:22:21;;;;;;;17.70;11.05;;;;;;;0.63;55.95;102298.91;696450;28;1375;-94
2022/03/01 00:22:44;;;;;;;17.15;10.68;;;;;;;0.73;55.85;102324.69;696264;28;1289;-94
2022/03/01 00:23:05;;;;;;;15.94;10.32;;;;;;;0.61;55.56;102305.56;693565;28;1211;-94
2022/03/01 00:23:25;;;;;;;15.50;10.60;;;;;;;0.66;55.53;102309.47;693814;28;1206;-94
2022/03/01 00:23:46;;;;;;;15.00;10.57;;;;;;;0.62;55.92;102307.38;693595;28;1256;-94
2022/03/01 00:24:07;;;;;;;14.15;9.95;;;;;;;0.68;55.74;102318.22;691033;28;1241;-94
2022/03/01 00:24:27;;;;;;;15.20;9.67;;;;;;;0.69;55.90;102316.53;696344;28;1260;-94
2022/03/01 00:24:48;;;;;;;16.02;9.68;;;;;;;0.69;56.03;102317.47;690404;28;1130;-94
2022/03/01 00:25:09;;;;;;;15.52;9.60;;;;;;;0.69;55.75;102314.88;688298;28;1203;-93
2022/03/01 00:25:29;;;;;;;15.23;9.70;;;;;;;0.68;55.82;102315.66;690848;28;1388;-95
2022/03/01 00:25:50;;;;;;;14.10;9.60;;;;;;;0.66;55.84;102314.63;696076;28;1228;-94
2022/03/01 00:26:11;;;;;;;14.27;9.90;;;;;;;0.65;55.86;102313.69;693466;28;1196;-94
2022/03/01 00:26:31;;;;;;;16.10;10.38;;;;;;;0.70;55.89;102319.25;690895;28;1210;-94
2022/03/01 00:26:52;;;;;;;16.52;10.93;;;;;;;0.64;55.62;102309.31;690909;28;1373;-94
2022/03/01 00:27:13;;;;;;;16.80;10.77;;;;;;;0.69;56.04;102320.03;690778;28;1293;-94
2022/03/01 00:27:33;;;;;;;17.35;10.50;;;;;;;0.63;55.99;102304.03;690872;28;1327;-94
2022/03/01 00:27:54;;;;;;;18.13;10.30;;;;;;;0.69;55.92;102319.09;693462;28;1193;-93
2022/03/01 00:28:15;;;;;;;19.25;10.85;;;;;;;0.64;56.24;102310.97;693648;28;1207;-94
2022/03/01 00:28:35;;;;;;;16.75;10.70;;;;;;;0.66;56.14;102310.38;693532;28;1261;-94
2022/03/01 00:28:56;;;;;;;17.37;10.90;;;;;;;0.70;56.20;102315.78;693523;28;1161;-94
2022/03/01 00:29:17;;;;;;;15.75;9.98;;;;;;;0.64;56.01;102305.84;693529;28;1293;-94
2022/03/01 00:29:37;;;;;;;16.02;10.23;;;;;;;0.71;56.06;102323.63;692941;28;1271;-93
2022/03/01 00:29:58;;;;;;;14.60;10.27;;;;;;;0.70;56.19;102319.25;690835;28;1260;-94
2022/03/01 00:30:18;;;;;;;15.35;10.40;;;;;;;0.72;55.84;102315.16;690663;28;1254;-94
2022/03/01 00:30:39;;;;;;;16.42;10.40;;;;;;;0.73;55.94;102311.81;693589;28;1171;-94
2022/03/01 00:30:59;;;;;;;17.13;10.20;;;;;;;0.69;56.27;102303.69;693492;28;1357;-94
2022/03/01 00:31:20;;;;;;;17.50;10.30;;;;;;;0.68;55.97;102307.94;693297;28;1217;-94
2022/03/01 00:31:41;;;;;;;16.23;10.00;;;;;;;0.75;56.02;102328.31;690765;28;1307;-94
2022/03/01 00:32:02;;;;;;;15.35;9.85;;;;;;;0.73;56.08;102324.69;687981;28;1169;-94
2022/03/01 00:32:22;;;;;;;16.20;10.00;;;;;;;0.68;56.18;102313.09;690873;28;1154;-94
2022/03/01 00:32:43;;;;;;;16.00;10.27;;;;;;;0.71;56.19;102327.88;696247;28;1249;-93
2022/03/01 00:33:03;;;;;;;15.65;10.38;;;;;;;0.61;56.32;102305.56;690696;28;1199;-94
2022/03/01 00:33:24;;;;;;;15.23;11.00;;;;;;;0.68;56.36;102331.06;690835;28;1294;-94
2022/03/01 00:33:44;;;;;;;15.90;11.00;;;;;;;0.60;56.37;102308.91;693674;28;1145;-94
2022/03/01 00:34:05;;;;;;;16.42;10.55;;;;;;;0.59;56.57;102312.22;693280;28;1187;-94
2022/03/01 00:34:26;;;;;;;15.30;9.73;;;;;;;0.57;56.27;102308.59;693585;28;1268;-93
2022/03/01 00:34:46;;;;;;;14.80;9.60;;;;;;;0.58;56.43;102305.25;695924;28;1343;-93
2022/03/01 00:35:07;;;;;;;14.20;9.80;;;;;;;0.53;56.59;102309.97;690401;28;1333;-94
2022/03/01 00:35:28;;;;;;;14.88;9.85;;;;;;;0.60;56.58;102317.50;690607;28;1360;-94
2022/03/01 00:35:48;;;;;;;14.23;9.90;;;;;;;0.51;56.42;102297.00;690141;28;1262;-94
2022/03/01 00:36:10;;;;;;;14.60;9.90;;;;;;;0.61;56.63;102320.97;693469;28;1238;-94
2022/03/01 00:36:30;;;;;;;14.60;9.85;;;;;;;0.59;56.41;102312.22;696482;28;1242;-94
2022/03/01 00:36:51;;;;;;;15.20;10.30;;;;;;;0.62;56.17;102318.56;693572;28;1184;-94
2022/03/01 00:37:12;;;;;;;13.97;10.10;;;;;;;0.59;56.56;102307.09;693417;28;1187;-94
2022/03/01 00:37:32;;;;;;;15.25;10.30;;;;;;;0.62;56.55;102322.78;690751;28;1198;-94
2022/03/01 00:37:53;;;;;;;14.60;10.15;;;;;;;0.58;56.64;102316.44;693715;28;1235;-94
2022/03/01 00:38:14;;;;;;;14.68;10.32;;;;;;;0.53;56.39;102305.75;693335;28;1199;-93
2022/03/01 00:38:35;;;;;;;13.07;10.07;;;;;;;0.61;56.16;102315.84;693618;28;1235;-93
2022/03/01 00:38:55;;;;;;;13.90;10.30;;;;;;;0.59;56.56;102307.09;693341;28;1360;-93
2022/03/01 00:39:16;;;;;;;14.02;10.27;;;;;;;0.58;56.63;102305.25;693466;28;1204;-94
2022/03/01 00:39:36;;;;;;;15.02;10.48;;;;;;;0.56;56.34;102309.34;690612;28;1445;-94
2022/03/01 00:39:57;;;;;;;14.70;10.20;;;;;;;0.59;56.46;102315.69;690591;28;1229;-94
2022/03/01 00:40:17;;;;;;;14.63;10.10;;;;;;;0.63;56.38;102324.59;688140;28;1271;-94
2022/03/01 00:40:38;;;;;;;15.20;10.07;;;;;;;0.61;56.41;102318.41;693577;28;1204;-94
2022/03/01 00:40:59;;;;;;;14.88;10.07;;;;;;;0.65;56.56;102329.13;690906;28;1309;-94
2022/03/01 00:41:20;;;;;;;16.13;9.70;;;;;;;0.56;56.67;102311.94;690604;28;1906;-94
2022/03/01 00:41:40;;;;;;;14.63;9.40;;;;;;;0.62;56.78;102321.13;696065;28;1222;-94
2022/03/01 00:42:01;;;;;;;14.30;9.90;;;;;;;0.57;56.66;102312.06;690694;28;1315;-94
2022/03/01 00:42:52;;;;;;;13.93;10.35;;;;;;;0.66;56.78;102327.47;693526;28;1288;-94
2022/03/01 00:43:31;;;;;;;14.77;9.77;;;;;;;0.58;56.81;102315.53;693679;28;1322;-94
2022/03/01 00:43:57;;;;;;;16.40;9.85;;;;;;;0.59;56.96;102317.38;693556;28;1268;-94
2022/03/01 00:44:18;;;;;;;16.52;10.07;;;;;;;0.51;56.54;102308.94;692394;28;1430;-94
2022/03/01 00:44:39;;;;;;;15.77;10.33;;;;;;;0.50;56.78;102308.03;693431;28;1240;-94
2022/03/01 00:44:59;;;;;;;14.13;10.15;;;;;;;0.61;57.03;102326.13;690715;28;1272;-94
2022/03/01 00:45:20;;;;;;;14.18;10.02;;;;;;;0.55;56.88;102311.03;687971;28;1160;-94
2022/03/01 00:45:41;;;;;;;16.50;9.97;;;;;;;0.51;56.59;102308.94;685512;28;1312;-94
2022/03/01 00:46:01;;;;;;;16.92;9.85;;;;;;;0.53;56.99;102318.59;688067;28;1247;-94
2022/03/01 00:46:26;;;;;;;17.55;10.30;;;;;;;0.48;56.94;102309.53;690722;28;1246;-94
2022/03/01 00:46:47;;;;;;;16.85;9.98;;;;;;;0.48;56.75;102308.66;690902;28;1207;-93
2022/03/01 00:47:07;;;;;;;17.52;10.20;;;;;;;0.46;56.75;102308.50;690796;28;1265;-94
2022/03/01 00:47:28;;;;;;;15.60;9.80;;;;;;;0.50;57.12;102314.81;688117;28;1216;-94
2022/03/01 00:47:49;;;;;;;13.85;9.40;;;;;;;0.42;57.11;102306.41;693454;28;1284;-94
2022/03/01 00:48:10;;;;;;;13.25;9.18;;;;;;;0.46;57.15;102310.16;688070;28;1344;-94
2022/03/01 00:48:31;;;;;;;14.30;9.40;;;;;;;0.39;57.07;102308.69;690842;28;1333;-94
2022/03/01 00:48:56;;;;;;;13.80;9.40;;;;;;;0.46;57.23;102312.72;687957;28;1259;-94
2022/03/01 00:49:16;;;;;;;14.63;9.48;;;;;;;0.45;56.88;102316.97;690792;28;1370;-94
2022/03/01 00:49:37;;;;;;;13.98;9.80;;;;;;;0.44;57.13;102317.72;693153;28;1256;-94
2022/03/01 00:49:58;;;;;;;14.65;9.82;;;;;;;0.43;57.07;102320.16;690687;28;1187;-94
2022/03/01 00:50:18;;;;;;;13.00;9.57;;;;;;;0.34;57.13;102304.75;688326;28;1169;-94
2022/03/01 00:50:39;;;;;;;12.95;9.20;;;;;;;0.33;57.33;102298.72;690589;28;1226;-94
2022/03/01 00:50:59;;;;;;;13.57;9.20;;;;;;;0.37;57.18;102305.06;688074;28;1367;-94
2022/03/01 00:51:20;;;;;;;13.60;9.23;;;;;;;0.40;56.89;102318.19;688018;28;1254;-94
2022/03/01 00:51:41;;;;;;;14.93;9.60;;;;;;;0.38;57.08;102312.00;687983;28;1359;-93
2022/03/01 00:52:02;;;;;;;14.63;9.80;;;;;;;0.35;57.10;102311.72;688183;28;1297;-94
2022/03/01 00:52:22;;;;;;;14.77;9.60;;;;;;;0.39;57.45;102313.81;693345;28;1216;-94
2022/03/01 00:52:43;;;;;;;14.82;9.75;;;;;;;0.35;57.01;102307.47;693141;28;1144;-94
2022/03/01 00:53:03;;;;;;;14.57;9.70;;;;;;;0.45;57.12;102323.75;693329;28;1192;-94
2022/03/01 00:53:24;;;;;;;15.18;10.10;;;;;;;0.38;56.69;102309.44;690773;28;1335;-94
2022/03/01 00:53:44;;;;;;;15.93;10.20;;;;;;;0.40;57.13;102310.47;687844;28;1177;-94
2022/03/01 00:54:05;;;;;;;15.60;10.30;;;;;;;0.46;56.92;102323.00;693502;28;1181;-94
2022/03/01 00:54:26;;;;;;;15.82;10.00;;;;;;;0.42;57.22;102313.19;688117;28;1273;-94
2022/03/01 00:54:46;;;;;;;14.70;9.90;;;;;;;0.45;57.00;102319.53;685308;28;1369;-94
2022/03/01 00:55:07;;;;;;;14.83;10.03;;;;;;;0.34;57.01;102300.53;688074;28;1063;-94
2022/03/01 00:55:28;;;;;;;13.73;9.82;;;;;;;0.35;57.33;102312.63;690300;28;1327;-94
2022/03/01 00:55:49;;;;;;;13.73;9.77;;;;;;;0.40;57.32;102313.06;687612;28;1236;-94
2022/03/01 00:56:09;;;;;;;12.82;9.32;;;;;;;0.35;57.23;102306.59;690760;28;1198;-94
2022/03/01 00:56:30;;;;;;;12.43;9.68;;;;;;;0.31;57.30;102304.47;693432;28;1223;-94
2022/03/01 00:56:51;;;;;;;13.57;9.60;;;;;;;0.40;57.55;102320.75;693520;28;1272;-94
2022/03/01 00:57:12;;;;;;;15.25;10.25;;;;;;;0.34;57.49;102312.47;688006;28;1294;-94
2022/03/01 00:57:32;;;;;;;15.80;10.13;;;;;;;0.33;57.66;102310.66;688049;28;1286;-94
2022/03/01 00:58:01;;;;;;;14.77;10.10;;;;;;;0.30;57.75;102312.94;693419;28;1305;-93
2022/03/01 00:58:22;;;;;;;14.48;10.20;;;;;;;0.30;57.72;102305.25;692343;28;1347;-94
2022/03/01 00:58:43;;;;;;;14.38;9.93;;;;;;;0.34;57.59;102315.03;690800;28;1300;-95
2022/03/01 00:59:03;;;;;;;14.18;10.00;;;;;;;0.29;57.66;102311.16;693588;28;1259;-94
2022/03/01 00:59:24;;;;;;;13.80;9.82;;;;;;;0.29;57.81;102313.72;696008;28;1204;-94
2022/03/01 00:59:45;;;;;;;13.63;9.90;;;;;;;0.29;57.74;102316.28;692974;28;1162;-94
2022/03/01 01:00:07;;;;;;;13.60;9.63;;;;;;;0.27;57.87;102313.56;696119;28;1216;-94
2022/03/01 01:00:29;;;;;;;14.02;9.30;;;;;;;0.29;58.08;102322.31;693495;28;1318;-94
2022/03/01 01:00:49;;;;;;;13.75;9.20;;;;;;;0.31;57.96;102322.47;693403;28;1263;-94
2022/03/01 01:01:10;;;;;;;13.82;9.45;;;;;;;0.28;57.90;102314.47;693299;28;1283;-93
2022/03/01 01:01:31;;;;;;;12.25;9.10;;;;;;;0.25;57.83;102310.84;693397;28;1971;-94
2022/03/01 01:01:51;;;;;;;14.00;9.20;;;;;;;0.20;57.94;102304.38;693509;28;1203;-94
2022/03/01 01:02:12;;;;;;;15.80;9.33;;;;;;;0.19;57.85;102300.00;693449;28;1308;-94
2022/03/01 01:02:32;;;;;;;16.52;9.50;;;;;;;0.27;57.89;102312.66;696191;28;1191;-94
2022/03/01 01:02:53;;;;;;;14.85;9.45;;;;;;;0.28;57.66;102315.38;690541;28;1421;-94
2022/03/01 01:03:14;;;;;;;14.50;9.17;;;;;;;0.23;57.73;102306.34;693356;28;1140;-94
2022/03/01 01:03:35;;;;;;;13.40;9.00;;;;;;;0.16;57.87;102294.56;690672;28;1324;-93
2022/03/01 01:03:55;;;;;;;13.60;9.43;;;;;;;0.17;58.13;102306.63;699061;28;1178;-93
2022/03/01 01:04:16;;;;;;;12.65;9.57;;;;;;;0.19;58.01;102299.09;693446;28;1227;-94
2022/03/01 01:04:37;;;;;;;15.57;10.07;;;;;;;0.17;58.18;102301.50;693588;28;1246;-94
2022/03/01 01:05:19;;;;;;;16.60;10.30;;;;;;;0.28;58.18;102324.75;696141;28;1239;-93
2022/03/01 01:05:40;;;;;;;14.90;10.13;;;;;;;0.23;58.26;102312.38;692675;28;1524;-94
2022/03/01 01:06:01;;;;;;;13.55;9.80;;;;;;;0.20;58.15;102300.88;693606;28;1167;-94
2022/03/01 01:06:21;;;;;;;14.35;10.10;;;;;;;0.19;58.15;102299.09;694992;28;1087;-94
2022/03/01 01:06:42;;;;;;;13.98;10.00;;;;;;;0.26;58.27;102311.75;696308;28;1367;-94
2022/03/01 01:07:03;;;;;;;14.57;10.30;;;;;;;0.22;58.16;102297.72;690661;28;1255;-94
2022/03/01 01:07:25;;;;;;;14.45;10.25;;;;;;;0.27;58.00;102310.09;693290;28;1113;-94
2022/03/01 01:07:46;;;;;;;15.95;10.32;;;;;;;0.15;58.10;102286.72;688142;28;1279;-93
2022/03/01 01:08:09;;;;;;;16.20;10.00;;;;;;;0.22;58.17;102295.16;685242;28;1189;-94
2022/03/01 01:08:30;;;;;;;16.85;9.95;;;;;;;0.20;58.10;102290.63;690790;28;1242;-94
2022/03/01 01:08:50;;;;;;;16.83;9.93;;;;;;;0.25;58.09;102305.69;693348;28;1349;-94
2022/03/01 01:09:13;;;;;;;15.00;9.60;;;;;;;0.25;58.15;102315.97;688063;28;1125;-94
2022/03/01 01:09:34;;;;;;;15.02;9.75;;;;;;;0.18;58.14;102298.16;690436;28;1284;-94
2022/03/01 01:09:55;;;;;;;14.23;9.73;;;;;;;0.21;58.35;102303.63;690471;28;1181;-93
2022/03/01 01:10:16;;;;;;;15.15;9.90;;;;;;;0.24;58.16;102308.16;688046;28;1251;-94
2022/03/01 01:10:37;;;;;;;15.60;9.70;;;;;;;0.15;58.37;102287.63;690633;28;1303;-94
2022/03/01 01:10:57;;;;;;;16.42;10.50;;;;;;;0.20;58.17;102296.69;690830;28;1222;-94
2022/03/01 01:11:18;;;;;;;17.20;10.52;;;;;;;0.14;58.33;102284.91;690620;28;1198;-94
2022/03/01 01:11:39;;;;;;;16.70;10.60;;;;;;;0.12;58.48;102287.34;687843;28;1216;-94
2022/03/01 01:11:59;;;;;;;17.02;10.20;;;;;;;0.16;58.43;102303.94;693401;28;1310;-94
2022/03/01 01:12:20;;;;;;;17.33;10.23;;;;;;;0.15;58.38;102303.03;693523;28;1176;-95
2022/03/01 01:12:41;;;;;;;17.27;10.10;;;;;;;0.12;58.33;102288.22;690753;28;1149;-94
2022/03/01 01:13:02;;;;;;;15.98;9.82;;;;;;;0.15;58.52;102297.91;693464;28;1262;-94
2022/03/01 01:13:23;;;;;;;15.35;9.40;;;;;;;0.11;58.68;102291.56;693477;28;1288;-94
2022/03/01 01:13:43;;;;;;;15.05;9.45;;;;;;;0.13;58.63;102296.84;690694;28;1174;-94
2022/03/01 01:14:32;;;;;;;14.02;9.15;;;;;;;0.18;58.63;102308.44;688007;28;1211;-94
2022/03/01 01:15:15;;;;;;;17.38;9.70;;;;;;;0.04;58.68;102288.28;687964;28;1159;-94
2022/03/01 01:15:35;;;;;;;18.65;10.43;;;;;;;0.06;58.75;102290.22;696104;28;1193;-93
2022/03/01 01:15:56;;;;;;;15.65;9.95;;;;;;;0.08;58.63;102292.94;690619;28;1188;-93
2022/03/01 01:16:17;;;;;;;14.73;9.65;;;;;;;0.10;58.68;102300.03;690647;28;1199;-94
2022/03/01 01:16:37;;;;;;;13.23;8.80;;;;;;;0.08;58.90;102295.50;696157;28;1121;-94
2022/03/01 01:16:58;;;;;;;14.00;9.00;;;;;;;0.03;58.86;102286.47;690814;28;1169;-94
2022/03/01 01:17:20;;;;;;;16.05;9.38;;;;;;;0.08;58.97;102295.50;687939;28;1383;-94
2022/03/01 01:17:41;;;;;;;16.80;9.97;;;;;;;0.05;58.68;102296.09;690804;28;1309;-94
2022/03/01 01:18:01;;;;;;;15.35;9.50;;;;;;;0.05;58.76;102292.66;695985;28;1281;-94
2022/03/01 01:18:22;;;;;;;14.05;9.68;;;;;;;0.05;58.84;102290.09;690713;28;1164;-94
2022/03/01 01:18:43;;;;;;;15.20;9.33;;;;;;;0.03;58.92;102286.47;693254;28;1238;-93
2022/03/01 01:19:03;;;;;;;14.55;9.40;;;;;;;0.02;58.88;102290.69;688161;28;1175;-94
2022/03/01 01:19:24;;;;;;;13.53;9.30;;;;;;;0.05;58.72;102292.66;693339;28;1256;-94
2022/03/01 01:19:45;;;;;;;13.32;9.60;;;;;;;0.02;58.65;102293.25;690303;28;1197;-93
2022/03/01 01:20:06;;;;;;;14.70;10.03;;;;;;;-0.02;58.86;102288.56;688070;28;1219;-94
2022/03/01 01:20:27;;;;;;;15.13;9.90;;;;;;;0.01;58.75;102294.03;693432;28;1284;-94
2022/03/01 01:20:48;;;;;;;13.27;9.47;;;;;;;-0.05;58.74;102291.78;698737;28;1246;-94
2022/03/01 01:21:12;;;;;;;13.40;9.20;;;;;;;-0.09;59.15;102291.34;693391;28;1095;-94
2022/03/01 01:22:53;;;;;;;14.82;9.05;;;;;;;-0.17;59.29;102280.31;690763;28;1255;-94
2022/03/01 01:23:14;;;;;;;16.13;9.73;;;;;;;-0.13;59.10;102295.28;690000;28;1167;-93
2022/03/01 01:23:34;;;;;;;16.52;9.90;;;;;;;-0.13;59.06;102295.28;688487;28;1652;-93
2022/03/01 01:23:55;;;;;;;15.30;10.17;;;;;;;-0.12;58.99;102299.66;696010;28;1315;-94
2022/03/01 01:24:16;;;;;;;14.07;9.97;;;;;;;-0.09;59.15;102307.63;690529;28;1380;-94
2022/03/01 01:24:36;;;;;;;14.52;9.63;;;;;;;-0.18;58.99;102292.22;693383;28;1294;-94
2022/03/01 01:24:57;;;;;;;13.63;9.23;;;;;;;-0.18;59.09;102293.91;696075;28;1284;-94
2022/03/01 01:25:20;;;;;;;15.73;9.90;;;;;;;-0.20;59.14;102298.88;696071;28;1259;-94
2022/03/01 01:25:41;;;;;;;15.98;10.20;;;;;;;-0.12;59.19;102306.41;688123;28;1372;-94
2022/03/01 01:26:02;;;;;;;17.80;10.67;;;;;;;-0.18;59.17;102291.34;688025;28;1319;-94
2022/03/01 01:26:22;;;;;;;17.60;10.05;;;;;;;-0.15;59.35;102307.03;693398;28;1436;-95
2022/03/01 01:26:43;;;;;;;18.42;9.95;;;;;;;-0.18;59.04;102301.59;696097;28;1248;-94
2022/03/01 01:27:04;;;;;;;16.83;9.93;;;;;;;-0.24;59.03;102289.09;690764;28;1166;-94
2022/03/01 01:27:24;;;;;;;14.33;9.70;;;;;;;-0.26;59.23;102285.47;690349;28;1207;-94
2022/03/01 01:27:48;;;;;;;16.40;9.80;;;;;;;-0.22;59.24;102294.34;690694;28;1205;-92
2022/03/01 01:28:09;;;;;;;17.40;9.52;;;;;;;-0.14;59.17;102308.84;693421;28;1313;-94
2022/03/01 01:28:30;;;;;;;17.67;9.77;;;;;;;-0.26;59.24;102284.56;690635;28;1174;-94
2022/03/01 01:28:50;;;;;;;16.40;9.83;;;;;;;-0.18;59.21;102317.00;693425;28;1177;-94
2022/03/01 01:29:11;;;;;;;15.10;9.93;;;;;;;-0.20;59.39;102300.56;693458;28;1385;-94
2022/03/01 01:29:31;;;;;;;17.00;9.63;;;;;;;-0.28;59.16;102288.66;692914;28;1249;-93
2022/03/01 01:29:52;;;;;;;17.37;10.00;;;;;;;-0.25;59.53;102299.22;687630;28;1322;-94
2022/03/01 01:30:15;;;;;;;18.77;10.23;;;;;;;-0.18;59.55;102309.31;690690;28;1191;-94
2022/03/01 01:30:36;;;;;;;16.48;10.30;;;;;;;-0.20;59.45;102303.13;690771;28;1352;-94
2022/03/01 01:30:56;;;;;;;16.42;9.90;;;;;;;-0.21;59.31;102301.31;690705;28;1194;-93
2022/03/01 01:31:17;;;;;;;15.50;9.53;;;;;;;-0.23;59.37;102292.56;690566;28;1267;-94
2022/03/01 01:31:37;;;;;;;15.02;9.52;;;;;;;-0.17;59.38;102308.53;693349;28;1185;-95
2022/03/01 01:31:58;;;;;;;14.05;9.55;;;;;;;-0.21;59.38;102304.78;693381;28;1379;-95
2022/03/01 01:32:18;;;;;;;13.73;9.90;;;;;;;-0.16;59.29;102315.47;690653;28;1191;-93
2022/03/01 01:32:40;;;;;;;13.57;10.48;;;;;;;-0.25;59.32;102289.88;693465;28;1296;-94
2022/03/01 01:33:01;;;;;;;14.05;10.23;;;;;;;-0.18;59.21;102297.38;693573;28;1250;-94
2022/03/01 01:33:21;;;;;;;14.43;10.10;;;;;;;-0.22;59.37;102296.91;690679;28;1154;-94
2022/03/01 01:33:43;;;;;;;15.13;10.10;;;;;;;-0.24;59.33;102296.78;693467;28;1354;-94
2022/03/01 01:34:03;;;;;;;15.50;9.90;;;;;;;-0.19;59.40;102297.25;689998;28;1356;-94
2022/03/01 01:34:24;;;;;;;16.30;10.03;;;;;;;-0.22;59.57;102295.28;687548;28;1187;-94
2022/03/01 01:34:45;;;;;;;15.55;9.20;;;;;;;-0.22;59.37;102299.50;690016;28;1269;-93
2022/03/01 01:35:07;;;;;;;15.93;9.52;;;;;;;-0.28;59.71;102291.22;693192;28;1162;-94
2022/03/01 01:35:30;;;;;;;17.17;9.98;;;;;;;-0.27;59.63;102293.03;690558;28;1213;-94
2022/03/01 01:35:51;;;;;;;16.27;10.00;;;;;;;-0.25;59.45;102288.94;690519;28;1390;-95
2022/03/01 01:36:11;;;;;;;14.30;9.50;;;;;;;-0.32;59.66;102282.31;693150;28;1244;-94
2022/03/01 01:36:32;;;;;;;14.88;9.50;;;;;;;-0.29;59.55;102287.75;687974;28;1284;-94
2022/03/01 01:36:52;;;;;;;14.70;9.90;;;;;;;-0.21;59.76;102306.47;693455;28;1173;-94
2022/03/01 01:37:13;;;;;;;17.43;10.50;;;;;;;-0.25;59.69;102305.25;693278;28;1224;-94
2022/03/01 01:37:34;;;;;;;17.88;10.70;;;;;;;-0.30;60.01;102285.94;693515;28;1286;-94
2022/03/01 01:37:56;;;;;;;18.20;10.57;;;;;;;-0.26;59.92;102299.97;690688;28;1459;-94
2022/03/01 01:38:16;;;;;;;15.93;9.98;;;;;;;-0.31;59.82;102289.25;693463;28;1354;-94
2022/03/01 01:38:37;;;;;;;15.43;9.93;;;;;;;-0.23;59.58;102307.94;690546;28;1236;-94
2022/03/01 01:38:57;;;;;;;15.27;10.15;;;;;;;-0.30;59.76;102293.63;693349;28;1200;-94
2022/03/01 01:39:18;;;;;;;15.03;10.67;;;;;;;-0.31;60.01;102295.28;687962;28;1137;-93
2022/03/01 01:39:39;;;;;;;14.37;10.63;;;;;;;-0.28;59.59;102298.91;695524;28;1312;-94
2022/03/01 01:39:59;;;;;;;14.85;10.52;;;;;;;-0.31;59.99;102295.28;693435;28;1248;-94
2022/03/01 01:40:26;;;;;;;14.55;10.00;;;;;;;-0.24;60.07;102308.72;688109;28;1256;-94
2022/03/01 01:40:46;;;;;;;16.05;9.95;;;;;;;-0.26;59.90;102305.09;690667;28;1375;-94
2022/03/01 01:41:16;;;;;;;16.53;10.07;;;;;;;-0.32;60.01;102293.47;690719;28;1215;-94
2022/03/01 01:41:36;;;;;;;16.00;10.30;;;;;;;-0.36;60.02;102288.81;690689;28;1978;-93
2022/03/01 01:41:57;;;;;;;15.73;10.30;;;;;;;-0.31;60.05;102299.53;687941;28;1249;-94
2022/03/01 01:42:18;;;;;;;17.17;10.20;;;;;;;-0.34;60.27;102299.22;693531;28;1236;-93
2022/03/01 01:42:44;;;;;;;16.67;9.80;;;;;;;-0.36;60.13;102291.38;688086;28;1153;-94